<?xml version="1.0" encoding="utf-8"?>
<gpx xmlns:xsi="http://www.w3.org/2001/XMLSchema-instance" xmlns:xsd="http://www.w3.org/2001/XMLSchema" version="1.1" creator="Shapelink.com" xmlns="http://www.topografix.com/GPX/1/1" xmlns:gpxtpx="http://www.garmin.com/xmlschemas/TrackPointExtension/v1">
  <metadata>
    <name>Löpning 7.24 km, 2019-07-29</name>
    <desc></desc>
    <author><name>Marian Moron</name></author> 
    <time>2019-07-29T08:30:27Z</time>
  </metadata>
  <trk>
    <name>Löpning 7.24 km, 2019-07-29</name>
    <trkseg>
      <trkpt lat="53.9960740715" lon="16.685091360611">
        <ele>135.4</ele>
        <time>2019-07-29T08:30:27Z</time>
      </trkpt>
      <trkpt lat="53.996235925989" lon="16.684946772836">
        <ele>134.2</ele>
        <time>2019-07-29T08:30:33Z</time>
      </trkpt>
      <trkpt lat="53.996400378867" lon="16.684786007994">
        <ele>134.8</ele>
        <time>2019-07-29T08:30:39Z</time>
      </trkpt>
      <trkpt lat="53.9965937493" lon="16.684675869828">
        <ele>134.6</ele>
        <time>2019-07-29T08:30:45Z</time>
      </trkpt>
      <trkpt lat="53.99678234205" lon="16.68456925206">
        <ele>134.6</ele>
        <time>2019-07-29T08:30:51Z</time>
      </trkpt>
      <trkpt lat="53.996973700827" lon="16.684431285986">
        <ele>134.2</ele>
        <time>2019-07-29T08:30:58Z</time>
      </trkpt>
      <trkpt lat="53.997146870881" lon="16.684284099822">
        <ele>134.2</ele>
        <time>2019-07-29T08:31:05Z</time>
      </trkpt>
      <trkpt lat="53.99732213641" lon="16.68413423145">
        <ele>135.8</ele>
        <time>2019-07-29T08:31:12Z</time>
      </trkpt>
      <trkpt lat="53.997500754699" lon="16.683983860164">
        <ele>136.2</ele>
        <time>2019-07-29T08:31:20Z</time>
      </trkpt>
      <trkpt lat="53.997663698835" lon="16.683810019558">
        <ele>136</ele>
        <time>2019-07-29T08:31:27Z</time>
      </trkpt>
      <trkpt lat="53.997819099261" lon="16.683651853105">
        <ele>135</ele>
        <time>2019-07-29T08:31:33Z</time>
      </trkpt>
      <trkpt lat="53.997987323994" lon="16.683485723847">
        <ele>135.2</ele>
        <time>2019-07-29T08:31:39Z</time>
      </trkpt>
      <trkpt lat="53.998149681397" lon="16.683314397811">
        <ele>135.6</ele>
        <time>2019-07-29T08:31:45Z</time>
      </trkpt>
      <trkpt lat="53.998310781515" lon="16.683153968245">
        <ele>136.2</ele>
        <time>2019-07-29T08:31:51Z</time>
      </trkpt>
      <trkpt lat="53.99847464766" lon="16.682991024109">
        <ele>137</ele>
        <time>2019-07-29T08:31:57Z</time>
      </trkpt>
      <trkpt lat="53.998654523234" lon="16.682811483811">
        <ele>137.8</ele>
        <time>2019-07-29T08:32:04Z</time>
      </trkpt>
      <trkpt lat="53.99880489452" lon="16.682633284617">
        <ele>138.6</ele>
        <time>2019-07-29T08:32:10Z</time>
      </trkpt>
      <trkpt lat="53.998962055145" lon="16.68246371878">
        <ele>138.4</ele>
        <time>2019-07-29T08:32:16Z</time>
      </trkpt>
      <trkpt lat="53.999143774737" lon="16.682285687224">
        <ele>138</ele>
        <time>2019-07-29T08:32:23Z</time>
      </trkpt>
      <trkpt lat="53.999316358058" lon="16.682098351759">
        <ele>137.4</ele>
        <time>2019-07-29T08:32:30Z</time>
      </trkpt>
      <trkpt lat="53.999456000512" lon="16.681890564458">
        <ele>137.2</ele>
        <time>2019-07-29T08:32:36Z</time>
      </trkpt>
      <trkpt lat="53.999601761753" lon="16.681636760526">
        <ele>136</ele>
        <time>2019-07-29T08:32:43Z</time>
      </trkpt>
      <trkpt lat="53.999720198" lon="16.681362672396">
        <ele>134.8</ele>
        <time>2019-07-29T08:32:50Z</time>
      </trkpt>
      <trkpt lat="53.999808962321" lon="16.681077855434">
        <ele>133</ele>
        <time>2019-07-29T08:32:57Z</time>
      </trkpt>
      <trkpt lat="53.999907198189" lon="16.680815334326">
        <ele>132</ele>
        <time>2019-07-29T08:33:05Z</time>
      </trkpt>
      <trkpt lat="53.999980288357" lon="16.680529846812">
        <ele>130.6</ele>
        <time>2019-07-29T08:33:12Z</time>
      </trkpt>
      <trkpt lat="54.000058659122" lon="16.680251986827">
        <ele>129.8</ele>
        <time>2019-07-29T08:33:19Z</time>
      </trkpt>
      <trkpt lat="54.000130743462" lon="16.679964320019">
        <ele>128.6</ele>
        <time>2019-07-29T08:33:26Z</time>
      </trkpt>
      <trkpt lat="54.000207437847" lon="16.679669025682">
        <ele>127</ele>
        <time>2019-07-29T08:33:33Z</time>
      </trkpt>
      <trkpt lat="54.000288909915" lon="16.679394769914">
        <ele>125.4</ele>
        <time>2019-07-29T08:33:40Z</time>
      </trkpt>
      <trkpt lat="54.000296705082" lon="16.67936744492">
        <ele>125.6</ele>
        <time>2019-07-29T08:33:41Z</time>
      </trkpt>
      <trkpt lat="54.000326796103" lon="16.679291253449">
        <ele>125.8</ele>
        <time>2019-07-29T08:33:52Z</time>
      </trkpt>
      <trkpt lat="54.00041170475" lon="16.679002496994">
        <ele>125.4</ele>
        <time>2019-07-29T08:34:01Z</time>
      </trkpt>
      <trkpt lat="54.000502899822" lon="16.678731342529">
        <ele>124.2</ele>
        <time>2019-07-29T08:34:08Z</time>
      </trkpt>
      <trkpt lat="54.000598285844" lon="16.678442586074">
        <ele>123.6</ele>
        <time>2019-07-29T08:34:15Z</time>
      </trkpt>
      <trkpt lat="54.00069920392" lon="16.678161708605">
        <ele>123.4</ele>
        <time>2019-07-29T08:34:21Z</time>
      </trkpt>
      <trkpt lat="54.000785872766" lon="16.67787546672">
        <ele>123.2</ele>
        <time>2019-07-29T08:34:27Z</time>
      </trkpt>
      <trkpt lat="54.000868769757" lon="16.677599031658">
        <ele>123</ele>
        <time>2019-07-29T08:34:32Z</time>
      </trkpt>
      <trkpt lat="54.000964407236" lon="16.67729543924">
        <ele>123</ele>
        <time>2019-07-29T08:34:38Z</time>
      </trkpt>
      <trkpt lat="54.001051662815" lon="16.676994026116">
        <ele>122.6</ele>
        <time>2019-07-29T08:34:44Z</time>
      </trkpt>
      <trkpt lat="54.001145707733" lon="16.676698228865">
        <ele>122.6</ele>
        <time>2019-07-29T08:34:50Z</time>
      </trkpt>
      <trkpt lat="54.001230951656" lon="16.676426152391">
        <ele>123</ele>
        <time>2019-07-29T08:34:56Z</time>
      </trkpt>
      <trkpt lat="54.001310328249" lon="16.676139407592">
        <ele>122</ele>
        <time>2019-07-29T08:35:02Z</time>
      </trkpt>
      <trkpt lat="54.001403786434" lon="16.675827181817">
        <ele>123</ele>
        <time>2019-07-29T08:35:09Z</time>
      </trkpt>
      <trkpt lat="54.001512751134" lon="16.675555775895">
        <ele>124</ele>
        <time>2019-07-29T08:35:15Z</time>
      </trkpt>
      <trkpt lat="54.001643760231" lon="16.675297948651">
        <ele>126.2</ele>
        <time>2019-07-29T08:35:21Z</time>
      </trkpt>
      <trkpt lat="54.001806536729" lon="16.675091167178">
        <ele>127.2</ele>
        <time>2019-07-29T08:35:27Z</time>
      </trkpt>
      <trkpt lat="54.001962859164" lon="16.674921936617">
        <ele>127.8</ele>
        <time>2019-07-29T08:35:33Z</time>
      </trkpt>
      <trkpt lat="54.002234348905" lon="16.674637622569">
        <ele>128.6</ele>
        <time>2019-07-29T08:35:43Z</time>
      </trkpt>
      <trkpt lat="54.002391760987" lon="16.674469733112">
        <ele>129</ele>
        <time>2019-07-29T08:35:49Z</time>
      </trkpt>
      <trkpt lat="54.002546407042" lon="16.674296060144">
        <ele>129</ele>
        <time>2019-07-29T08:35:56Z</time>
      </trkpt>
      <trkpt lat="54.002709434997" lon="16.674128254506">
        <ele>128</ele>
        <time>2019-07-29T08:36:02Z</time>
      </trkpt>
      <trkpt lat="54.002884113793" lon="16.673961873791">
        <ele>128</ele>
        <time>2019-07-29T08:36:09Z</time>
      </trkpt>
      <trkpt lat="54.003057619123" lon="16.673822315156">
        <ele>129.8</ele>
        <time>2019-07-29T08:36:16Z</time>
      </trkpt>
      <trkpt lat="54.00321461211" lon="16.673652246405">
        <ele>131.4</ele>
        <time>2019-07-29T08:36:22Z</time>
      </trkpt>
      <trkpt lat="54.003364983396" lon="16.673467341691">
        <ele>131.4</ele>
        <time>2019-07-29T08:36:28Z</time>
      </trkpt>
      <trkpt lat="54.003525915876" lon="16.673318143871">
        <ele>130.2</ele>
        <time>2019-07-29T08:36:34Z</time>
      </trkpt>
      <trkpt lat="54.003704198889" lon="16.673183530557">
        <ele>131.6</ele>
        <time>2019-07-29T08:36:41Z</time>
      </trkpt>
      <trkpt lat="54.0038608566" lon="16.673011617788">
        <ele>133.6</ele>
        <time>2019-07-29T08:36:47Z</time>
      </trkpt>
      <trkpt lat="54.004008964773" lon="16.67283710663">
        <ele>133.2</ele>
        <time>2019-07-29T08:36:53Z</time>
      </trkpt>
      <trkpt lat="54.004164616656" lon="16.672648932975">
        <ele>134</ele>
        <time>2019-07-29T08:37:00Z</time>
      </trkpt>
      <trkpt lat="54.0042296602" lon="16.672576848635">
        <ele>134</ele>
        <time>2019-07-29T08:37:03Z</time>
      </trkpt>
      <trkpt lat="54.004308366241" lon="16.672494035463">
        <ele>133.6</ele>
        <time>2019-07-29T08:37:14Z</time>
      </trkpt>
      <trkpt lat="54.004483128856" lon="16.672319189029">
        <ele>132.6</ele>
        <time>2019-07-29T08:37:22Z</time>
      </trkpt>
      <trkpt lat="54.004633164866" lon="16.672142414758">
        <ele>131</ele>
        <time>2019-07-29T08:37:27Z</time>
      </trkpt>
      <trkpt lat="54.004791666595" lon="16.671988271617">
        <ele>128.8</ele>
        <time>2019-07-29T08:37:32Z</time>
      </trkpt>
      <trkpt lat="54.004960813337" lon="16.671821890902">
        <ele>126.4</ele>
        <time>2019-07-29T08:37:38Z</time>
      </trkpt>
      <trkpt lat="54.005119063609" lon="16.671672106349">
        <ele>124</ele>
        <time>2019-07-29T08:37:44Z</time>
      </trkpt>
      <trkpt lat="54.005276894786" lon="16.671491895499">
        <ele>123.8</ele>
        <time>2019-07-29T08:37:50Z</time>
      </trkpt>
      <trkpt lat="54.005449561926" lon="16.671301291093">
        <ele>123.8</ele>
        <time>2019-07-29T08:37:56Z</time>
      </trkpt>
      <trkpt lat="54.005616445555" lon="16.671105238452">
        <ele>124.2</ele>
        <time>2019-07-29T08:38:02Z</time>
      </trkpt>
      <trkpt lat="54.005793974197" lon="16.670903989033">
        <ele>124.6</ele>
        <time>2019-07-29T08:38:08Z</time>
      </trkpt>
      <trkpt lat="54.00593872961" lon="16.670767531701">
        <ele>124.4</ele>
        <time>2019-07-29T08:38:13Z</time>
      </trkpt>
      <trkpt lat="54.005984997698" lon="16.670726208934">
        <ele>122.6</ele>
        <time>2019-07-29T08:38:23Z</time>
      </trkpt>
      <trkpt lat="54.006149199119" lon="16.670570557051">
        <ele>121.2</ele>
        <time>2019-07-29T08:38:30Z</time>
      </trkpt>
      <trkpt lat="54.006316669481" lon="16.6703837245">
        <ele>118.8</ele>
        <time>2019-07-29T08:38:36Z</time>
      </trkpt>
      <trkpt lat="54.006486822051" lon="16.670171159516">
        <ele>118.2</ele>
        <time>2019-07-29T08:38:42Z</time>
      </trkpt>
      <trkpt lat="54.006628643799" lon="16.669978543454">
        <ele>118.6</ele>
        <time>2019-07-29T08:38:47Z</time>
      </trkpt>
      <trkpt lat="54.0067861397" lon="16.669751645421">
        <ele>118.2</ele>
        <time>2019-07-29T08:38:53Z</time>
      </trkpt>
      <trkpt lat="54.006938522642" lon="16.669523993017">
        <ele>118.8</ele>
        <time>2019-07-29T08:38:59Z</time>
      </trkpt>
      <trkpt lat="54.007063412952" lon="16.669282510478">
        <ele>118.2</ele>
        <time>2019-07-29T08:39:05Z</time>
      </trkpt>
      <trkpt lat="54.007208252184" lon="16.669036166437">
        <ele>117.4</ele>
        <time>2019-07-29T08:39:11Z</time>
      </trkpt>
      <trkpt lat="54.00733263958" lon="16.668794180984">
        <ele>117.8</ele>
        <time>2019-07-29T08:39:17Z</time>
      </trkpt>
      <trkpt lat="54.007464151591" lon="16.668545825287">
        <ele>117.2</ele>
        <time>2019-07-29T08:39:23Z</time>
      </trkpt>
      <trkpt lat="54.007585018589" lon="16.668318591978">
        <ele>117</ele>
        <time>2019-07-29T08:39:29Z</time>
      </trkpt>
      <trkpt lat="54.007719799541" lon="16.668056573784">
        <ele>116.4</ele>
        <time>2019-07-29T08:39:36Z</time>
      </trkpt>
      <trkpt lat="54.007864303497" lon="16.667835794538">
        <ele>114.6</ele>
        <time>2019-07-29T08:39:43Z</time>
      </trkpt>
      <trkpt lat="54.007987768884" lon="16.667609231781">
        <ele>113.6</ele>
        <time>2019-07-29T08:39:49Z</time>
      </trkpt>
      <trkpt lat="54.008142917853" lon="16.667393649313">
        <ele>110.6</ele>
        <time>2019-07-29T08:39:56Z</time>
      </trkpt>
      <trkpt lat="54.008300832849" lon="16.667167170375">
        <ele>111</ele>
        <time>2019-07-29T08:40:03Z</time>
      </trkpt>
      <trkpt lat="54.008345005462" lon="16.667118387717">
        <ele>111.6</ele>
        <time>2019-07-29T08:40:05Z</time>
      </trkpt>
      <trkpt lat="54.008375431759" lon="16.667089134886">
        <ele>112.2</ele>
        <time>2019-07-29T08:40:20Z</time>
      </trkpt>
      <trkpt lat="54.008560168835" lon="16.666926358388">
        <ele>113.6</ele>
        <time>2019-07-29T08:40:27Z</time>
      </trkpt>
      <trkpt lat="54.008734679993" lon="16.666798199137">
        <ele>114</ele>
        <time>2019-07-29T08:40:33Z</time>
      </trkpt>
      <trkpt lat="54.008916483404" lon="16.666675069026">
        <ele>113</ele>
        <time>2019-07-29T08:40:39Z</time>
      </trkpt>
      <trkpt lat="54.009089988734" lon="16.66655487258">
        <ele>112.6</ele>
        <time>2019-07-29T08:40:44Z</time>
      </trkpt>
      <trkpt lat="54.009282437158" lon="16.666453032495">
        <ele>110.4</ele>
        <time>2019-07-29T08:40:50Z</time>
      </trkpt>
      <trkpt lat="54.009466922777" lon="16.666343061967">
        <ele>109.4</ele>
        <time>2019-07-29T08:40:56Z</time>
      </trkpt>
      <trkpt lat="54.009784177692" lon="16.66614415948">
        <ele>110</ele>
        <time>2019-07-29T08:41:07Z</time>
      </trkpt>
      <trkpt lat="54.009983918369" lon="16.666036535884">
        <ele>108.8</ele>
        <time>2019-07-29T08:41:14Z</time>
      </trkpt>
      <trkpt lat="54.010177121164" lon="16.665916926171">
        <ele>110</ele>
        <time>2019-07-29T08:41:21Z</time>
      </trkpt>
      <trkpt lat="54.01037191652" lon="16.665787593454">
        <ele>110.4</ele>
        <time>2019-07-29T08:41:28Z</time>
      </trkpt>
      <trkpt lat="54.010565789867" lon="16.665662954601">
        <ele>111.2</ele>
        <time>2019-07-29T08:41:35Z</time>
      </trkpt>
      <trkpt lat="54.010740301025" lon="16.665559019041">
        <ele>110.8</ele>
        <time>2019-07-29T08:41:42Z</time>
      </trkpt>
      <trkpt lat="54.010911543242" lon="16.66544343264">
        <ele>111.4</ele>
        <time>2019-07-29T08:41:48Z</time>
      </trkpt>
      <trkpt lat="54.011096699413" lon="16.66527998559">
        <ele>111.8</ele>
        <time>2019-07-29T08:41:55Z</time>
      </trkpt>
      <trkpt lat="54.011256877522" lon="16.665076892153">
        <ele>111.2</ele>
        <time>2019-07-29T08:42:02Z</time>
      </trkpt>
      <trkpt lat="54.011390736465" lon="16.664821579479">
        <ele>110</ele>
        <time>2019-07-29T08:42:09Z</time>
      </trkpt>
      <trkpt lat="54.011501209907" lon="16.664558136362">
        <ele>108.6</ele>
        <time>2019-07-29T08:42:20Z</time>
      </trkpt>
      <trkpt lat="54.011578742482" lon="16.664249347166">
        <ele>106.4</ele>
        <time>2019-07-29T08:42:27Z</time>
      </trkpt>
      <trkpt lat="54.011654011944" lon="16.663967547688">
        <ele>106.6</ele>
        <time>2019-07-29T08:42:33Z</time>
      </trkpt>
      <trkpt lat="54.011715199814" lon="16.663662697985">
        <ele>108.2</ele>
        <time>2019-07-29T08:42:40Z</time>
      </trkpt>
      <trkpt lat="54.011782674109" lon="16.663372181331">
        <ele>110.4</ele>
        <time>2019-07-29T08:42:46Z</time>
      </trkpt>
      <trkpt lat="54.011862385978" lon="16.663099266667">
        <ele>113.2</ele>
        <time>2019-07-29T08:42:52Z</time>
      </trkpt>
      <trkpt lat="54.011911168636" lon="16.662779581001">
        <ele>113</ele>
        <time>2019-07-29T08:42:59Z</time>
      </trkpt>
      <trkpt lat="54.011976128361" lon="16.662452351625">
        <ele>111.4</ele>
        <time>2019-07-29T08:43:06Z</time>
      </trkpt>
      <trkpt lat="54.012050894909" lon="16.662148088655">
        <ele>109.8</ele>
        <time>2019-07-29T08:43:13Z</time>
      </trkpt>
      <trkpt lat="54.012114178254" lon="16.661836114337">
        <ele>109.4</ele>
        <time>2019-07-29T08:43:20Z</time>
      </trkpt>
      <trkpt lat="54.012184418576" lon="16.661515339024">
        <ele>109.8</ele>
        <time>2019-07-29T08:43:27Z</time>
      </trkpt>
      <trkpt lat="54.012261112961" lon="16.661200431041">
        <ele>110.2</ele>
        <time>2019-07-29T08:43:34Z</time>
      </trkpt>
      <trkpt lat="54.012335879509" lon="16.660920978495">
        <ele>111.4</ele>
        <time>2019-07-29T08:43:40Z</time>
      </trkpt>
      <trkpt lat="54.012399162854" lon="16.660616715525">
        <ele>112.2</ele>
        <time>2019-07-29T08:43:46Z</time>
      </trkpt>
      <trkpt lat="54.012465547502" lon="16.660325779776">
        <ele>112.2</ele>
        <time>2019-07-29T08:43:52Z</time>
      </trkpt>
      <trkpt lat="54.012545175552" lon="16.660005339739">
        <ele>111.4</ele>
        <time>2019-07-29T08:43:59Z</time>
      </trkpt>
      <trkpt lat="54.012624216869" lon="16.659704094253">
        <ele>110.6</ele>
        <time>2019-07-29T08:44:06Z</time>
      </trkpt>
      <trkpt lat="54.012698815779" lon="16.659411398305">
        <ele>110.8</ele>
        <time>2019-07-29T08:44:12Z</time>
      </trkpt>
      <trkpt lat="54.012781628951" lon="16.65908911425">
        <ele>109.6</ele>
        <time>2019-07-29T08:44:19Z</time>
      </trkpt>
      <trkpt lat="54.012852036911" lon="16.658807230953">
        <ele>109.8</ele>
        <time>2019-07-29T08:44:25Z</time>
      </trkpt>
      <trkpt lat="54.012919008292" lon="16.658495843368">
        <ele>109</ele>
        <time>2019-07-29T08:44:32Z</time>
      </trkpt>
      <trkpt lat="54.012989919166" lon="16.658195100796">
        <ele>109.4</ele>
        <time>2019-07-29T08:44:39Z</time>
      </trkpt>
      <trkpt lat="54.013071223596" lon="16.657886479238">
        <ele>109</ele>
        <time>2019-07-29T08:44:47Z</time>
      </trkpt>
      <trkpt lat="54.013149426723" lon="16.657590095254">
        <ele>110.6</ele>
        <time>2019-07-29T08:44:54Z</time>
      </trkpt>
      <trkpt lat="54.013234922103" lon="16.657275941642">
        <ele>111</ele>
        <time>2019-07-29T08:45:01Z</time>
      </trkpt>
      <trkpt lat="54.013265935133" lon="16.657196816506">
        <ele>110.4</ele>
        <time>2019-07-29T08:45:03Z</time>
      </trkpt>
      <trkpt lat="54.013278507983" lon="16.657163372725">
        <ele>110.6</ele>
        <time>2019-07-29T08:45:04Z</time>
      </trkpt>
      <trkpt lat="54.013376157118" lon="16.656883668722">
        <ele>111</ele>
        <time>2019-07-29T08:45:12Z</time>
      </trkpt>
      <trkpt lat="54.013478164841" lon="16.656594157896">
        <ele>110.6</ele>
        <time>2019-07-29T08:45:18Z</time>
      </trkpt>
      <trkpt lat="54.013567012981" lon="16.656318225748">
        <ele>110.6</ele>
        <time>2019-07-29T08:45:24Z</time>
      </trkpt>
      <trkpt lat="54.013656028759" lon="16.656014465692">
        <ele>111.8</ele>
        <time>2019-07-29T08:45:31Z</time>
      </trkpt>
      <trkpt lat="54.013767256572" lon="16.655728475264">
        <ele>112</ele>
        <time>2019-07-29T08:45:38Z</time>
      </trkpt>
      <trkpt lat="54.013878232928" lon="16.655449106537">
        <ele>112</ele>
        <time>2019-07-29T08:45:45Z</time>
      </trkpt>
      <trkpt lat="54.013964315041" lon="16.655165379222">
        <ele>110.4</ele>
        <time>2019-07-29T08:45:52Z</time>
      </trkpt>
      <trkpt lat="54.014063221461" lon="16.654876790405">
        <ele>108.8</ele>
        <time>2019-07-29T08:45:59Z</time>
      </trkpt>
      <trkpt lat="54.014161038234" lon="16.654581496068">
        <ele>109.2</ele>
        <time>2019-07-29T08:46:06Z</time>
      </trkpt>
      <trkpt lat="54.014279139205" lon="16.654329536154">
        <ele>110</ele>
        <time>2019-07-29T08:46:12Z</time>
      </trkpt>
      <trkpt lat="54.014501175736" lon="16.653907926584">
        <ele>111</ele>
        <time>2019-07-29T08:46:23Z</time>
      </trkpt>
      <trkpt lat="54.014651798479" lon="16.653690919193">
        <ele>111.8</ele>
        <time>2019-07-29T08:46:30Z</time>
      </trkpt>
      <trkpt lat="54.014811222217" lon="16.653488496308">
        <ele>111.6</ele>
        <time>2019-07-29T08:46:38Z</time>
      </trkpt>
      <trkpt lat="54.014960839132" lon="16.653298394816">
        <ele>111.6</ele>
        <time>2019-07-29T08:46:45Z</time>
      </trkpt>
      <trkpt lat="54.014990678696" lon="16.65331985248">
        <ele>109.6</ele>
        <time>2019-07-29T08:47:22Z</time>
      </trkpt>
      <trkpt lat="54.015131243159" lon="16.653104270012">
        <ele>108.4</ele>
        <time>2019-07-29T08:47:31Z</time>
      </trkpt>
      <trkpt lat="54.015277926409" lon="16.652921293135">
        <ele>108.4</ele>
        <time>2019-07-29T08:47:37Z</time>
      </trkpt>
      <trkpt lat="54.015431398998" lon="16.652716942413">
        <ele>109.4</ele>
        <time>2019-07-29T08:47:44Z</time>
      </trkpt>
      <trkpt lat="54.015590906555" lon="16.652527427654">
        <ele>110.2</ele>
        <time>2019-07-29T08:47:50Z</time>
      </trkpt>
      <trkpt lat="54.015768099921" lon="16.652332967574">
        <ele>110.4</ele>
        <time>2019-07-29T08:47:56Z</time>
      </trkpt>
      <trkpt lat="54.015937833396" lon="16.652130041775">
        <ele>111.2</ele>
        <time>2019-07-29T08:48:02Z</time>
      </trkpt>
      <trkpt lat="54.016087617949" lon="16.651932396573">
        <ele>111.6</ele>
        <time>2019-07-29T08:48:08Z</time>
      </trkpt>
      <trkpt lat="54.016214436096" lon="16.651694099156">
        <ele>112</ele>
        <time>2019-07-29T08:48:14Z</time>
      </trkpt>
      <trkpt lat="54.016305379711" lon="16.651424872528">
        <ele>111.4</ele>
        <time>2019-07-29T08:48:20Z</time>
      </trkpt>
      <trkpt lat="54.01637419511" lon="16.651115077504">
        <ele>110.6</ele>
        <time>2019-07-29T08:48:27Z</time>
      </trkpt>
      <trkpt lat="54.016382493191" lon="16.651069144692">
        <ele>110.6</ele>
        <time>2019-07-29T08:48:54Z</time>
      </trkpt>
      <trkpt lat="54.016424905605" lon="16.650731270303">
        <ele>109.2</ele>
        <time>2019-07-29T08:49:03Z</time>
      </trkpt>
      <trkpt lat="54.016436724084" lon="16.650390881344">
        <ele>108.6</ele>
        <time>2019-07-29T08:49:09Z</time>
      </trkpt>
      <trkpt lat="54.016420882293" lon="16.650037248983">
        <ele>108.4</ele>
        <time>2019-07-29T08:49:15Z</time>
      </trkpt>
      <trkpt lat="54.016393892575" lon="16.649697865852">
        <ele>107.4</ele>
        <time>2019-07-29T08:49:21Z</time>
      </trkpt>
      <trkpt lat="54.016400095181" lon="16.649361667843">
        <ele>106.4</ele>
        <time>2019-07-29T08:49:27Z</time>
      </trkpt>
      <trkpt lat="54.016482405439" lon="16.649049693525">
        <ele>105.6</ele>
        <time>2019-07-29T08:49:33Z</time>
      </trkpt>
      <trkpt lat="54.016625149196" lon="16.648850958676">
        <ele>104</ele>
        <time>2019-07-29T08:49:39Z</time>
      </trkpt>
      <trkpt lat="54.016815418326" lon="16.64873662956">
        <ele>105.4</ele>
        <time>2019-07-29T08:49:45Z</time>
      </trkpt>
      <trkpt lat="54.017013314985" lon="16.648652223827">
        <ele>105.8</ele>
        <time>2019-07-29T08:49:51Z</time>
      </trkpt>
      <trkpt lat="54.017168128678" lon="16.648503109826">
        <ele>106</ele>
        <time>2019-07-29T08:49:57Z</time>
      </trkpt>
      <trkpt lat="54.017321852724" lon="16.648281911485">
        <ele>105.2</ele>
        <time>2019-07-29T08:50:03Z</time>
      </trkpt>
      <trkpt lat="54.017445234292" lon="16.64805099014">
        <ele>102.2</ele>
        <time>2019-07-29T08:50:09Z</time>
      </trkpt>
      <trkpt lat="54.017501644479" lon="16.647951496987">
        <ele>102</ele>
        <time>2019-07-29T08:50:12Z</time>
      </trkpt>
      <trkpt lat="54.01754347016" lon="16.648120140815">
        <ele>102.6</ele>
        <time>2019-07-29T08:53:07Z</time>
      </trkpt>
      <trkpt lat="54.017393685607" lon="16.648362713001">
        <ele>102.2</ele>
        <time>2019-07-29T08:53:16Z</time>
      </trkpt>
      <trkpt lat="54.017249349289" lon="16.64857653527">
        <ele>100.6</ele>
        <time>2019-07-29T08:53:22Z</time>
      </trkpt>
      <trkpt lat="54.017101827849" lon="16.648759931242">
        <ele>101.2</ele>
        <time>2019-07-29T08:53:28Z</time>
      </trkpt>
      <trkpt lat="54.016910804348" lon="16.648883899543">
        <ele>101.6</ele>
        <time>2019-07-29T08:53:35Z</time>
      </trkpt>
      <trkpt lat="54.016810305367" lon="16.648911224537">
        <ele>101.4</ele>
        <time>2019-07-29T08:53:39Z</time>
      </trkpt>
      <trkpt lat="54.016811059738" lon="16.648886917027">
        <ele>100.6</ele>
        <time>2019-07-29T08:53:57Z</time>
      </trkpt>
      <trkpt lat="54.016641661539" lon="16.6489931157">
        <ele>100.6</ele>
        <time>2019-07-29T08:54:05Z</time>
      </trkpt>
      <trkpt lat="54.016504366017" lon="16.649257648464">
        <ele>100.4</ele>
        <time>2019-07-29T08:54:12Z</time>
      </trkpt>
      <trkpt lat="54.016437981369" lon="16.64958990698">
        <ele>99.4</ele>
        <time>2019-07-29T08:54:19Z</time>
      </trkpt>
      <trkpt lat="54.016449129296" lon="16.64990255185">
        <ele>102.2</ele>
        <time>2019-07-29T08:54:25Z</time>
      </trkpt>
      <trkpt lat="54.016469245856" lon="16.650220309679">
        <ele>105.2</ele>
        <time>2019-07-29T08:54:31Z</time>
      </trkpt>
      <trkpt lat="54.016465976915" lon="16.650541755544">
        <ele>105.8</ele>
        <time>2019-07-29T08:54:37Z</time>
      </trkpt>
      <trkpt lat="54.016446698545" lon="16.650857334079">
        <ele>106</ele>
        <time>2019-07-29T08:54:43Z</time>
      </trkpt>
      <trkpt lat="54.01641275185" lon="16.651162267601">
        <ele>105.8</ele>
        <time>2019-07-29T08:54:49Z</time>
      </trkpt>
      <trkpt lat="54.016357598948" lon="16.651459489775">
        <ele>105.2</ele>
        <time>2019-07-29T08:54:55Z</time>
      </trkpt>
      <trkpt lat="54.016250059171" lon="16.651750928438">
        <ele>105</ele>
        <time>2019-07-29T08:55:01Z</time>
      </trkpt>
      <trkpt lat="54.016116284047" lon="16.651990734597">
        <ele>104.6</ele>
        <time>2019-07-29T08:55:07Z</time>
      </trkpt>
      <trkpt lat="54.015971360996" lon="16.652205311237">
        <ele>105.8</ele>
        <time>2019-07-29T08:55:13Z</time>
      </trkpt>
      <trkpt lat="54.015820319158" lon="16.652398262575">
        <ele>105.2</ele>
        <time>2019-07-29T08:55:19Z</time>
      </trkpt>
      <trkpt lat="54.015657710298" lon="16.652586100954">
        <ele>104.4</ele>
        <time>2019-07-29T08:55:26Z</time>
      </trkpt>
      <trkpt lat="54.015505746451" lon="16.652763042863">
        <ele>103.2</ele>
        <time>2019-07-29T08:55:33Z</time>
      </trkpt>
      <trkpt lat="54.015317740434" lon="16.653008800171">
        <ele>104.4</ele>
        <time>2019-07-29T08:55:42Z</time>
      </trkpt>
      <trkpt lat="54.015161250361" lon="16.653187586098">
        <ele>105.4</ele>
        <time>2019-07-29T08:55:49Z</time>
      </trkpt>
      <trkpt lat="54.015016494948" lon="16.653373915735">
        <ele>107</ele>
        <time>2019-07-29T08:55:56Z</time>
      </trkpt>
      <trkpt lat="54.014832512243" lon="16.653514564017">
        <ele>106</ele>
        <time>2019-07-29T08:56:04Z</time>
      </trkpt>
      <trkpt lat="54.014676944179" lon="16.653726961363">
        <ele>105.6</ele>
        <time>2019-07-29T08:56:12Z</time>
      </trkpt>
      <trkpt lat="54.014534116603" lon="16.653925277117">
        <ele>106</ele>
        <time>2019-07-29T08:56:20Z</time>
      </trkpt>
      <trkpt lat="54.014523806866" lon="16.654020244044">
        <ele>107.2</ele>
        <time>2019-07-29T08:56:46Z</time>
      </trkpt>
      <trkpt lat="54.014368574078" lon="16.654223672757">
        <ele>108.4</ele>
        <time>2019-07-29T08:56:55Z</time>
      </trkpt>
      <trkpt lat="54.014220633543" lon="16.654459539423">
        <ele>106.6</ele>
        <time>2019-07-29T08:57:02Z</time>
      </trkpt>
      <trkpt lat="54.014186770667" lon="16.654531204668">
        <ele>106.2</ele>
        <time>2019-07-29T08:57:04Z</time>
      </trkpt>
      <trkpt lat="54.014168414306" lon="16.654610245985">
        <ele>105.2</ele>
        <time>2019-07-29T08:57:07Z</time>
      </trkpt>
      <trkpt lat="54.014133964697" lon="16.65481434525">
        <ele>104</ele>
        <time>2019-07-29T08:57:12Z</time>
      </trkpt>
      <trkpt lat="54.014135724896" lon="16.654886848685">
        <ele>103.6</ele>
        <time>2019-07-29T08:57:26Z</time>
      </trkpt>
      <trkpt lat="54.014001865953" lon="16.655073597417">
        <ele>104</ele>
        <time>2019-07-29T08:57:34Z</time>
      </trkpt>
      <trkpt lat="54.013913939822" lon="16.655385487916">
        <ele>103.6</ele>
        <time>2019-07-29T08:57:41Z</time>
      </trkpt>
      <trkpt lat="54.013847638993" lon="16.655672567991">
        <ele>103.8</ele>
        <time>2019-07-29T08:57:47Z</time>
      </trkpt>
      <trkpt lat="54.013750073677" lon="16.655972388554">
        <ele>104.2</ele>
        <time>2019-07-29T08:57:53Z</time>
      </trkpt>
      <trkpt lat="54.01365594494" lon="16.656266006511">
        <ele>105.4</ele>
        <time>2019-07-29T08:57:59Z</time>
      </trkpt>
      <trkpt lat="54.013553182846" lon="16.656536490424">
        <ele>104.8</ele>
        <time>2019-07-29T08:58:05Z</time>
      </trkpt>
      <trkpt lat="54.013455701349" lon="16.656832874408">
        <ele>105.4</ele>
        <time>2019-07-29T08:58:12Z</time>
      </trkpt>
      <trkpt lat="54.013353274531" lon="16.657136466826">
        <ele>105.2</ele>
        <time>2019-07-29T08:58:19Z</time>
      </trkpt>
      <trkpt lat="54.013239615967" lon="16.657402089237">
        <ele>104.6</ele>
        <time>2019-07-29T08:58:26Z</time>
      </trkpt>
      <trkpt lat="54.013163675953" lon="16.657713141546">
        <ele>104.8</ele>
        <time>2019-07-29T08:58:33Z</time>
      </trkpt>
      <trkpt lat="54.01306502099" lon="16.658011285729">
        <ele>103.2</ele>
        <time>2019-07-29T08:58:40Z</time>
      </trkpt>
      <trkpt lat="54.01298623113" lon="16.658309429912">
        <ele>102.2</ele>
        <time>2019-07-29T08:58:47Z</time>
      </trkpt>
      <trkpt lat="54.012932922246" lon="16.658609501932">
        <ele>103.8</ele>
        <time>2019-07-29T08:58:54Z</time>
      </trkpt>
      <trkpt lat="54.012865867046" lon="16.658912675255">
        <ele>104</ele>
        <time>2019-07-29T08:59:01Z</time>
      </trkpt>
      <trkpt lat="54.012802416063" lon="16.659232780016">
        <ele>104.2</ele>
        <time>2019-07-29T08:59:08Z</time>
      </trkpt>
      <trkpt lat="54.012734271216" lon="16.659517680797">
        <ele>104.4</ele>
        <time>2019-07-29T08:59:15Z</time>
      </trkpt>
      <trkpt lat="54.012662354514" lon="16.659820435025">
        <ele>105.6</ele>
        <time>2019-07-29T08:59:22Z</time>
      </trkpt>
      <trkpt lat="54.012593790572" lon="16.660136097379">
        <ele>105.2</ele>
        <time>2019-07-29T08:59:29Z</time>
      </trkpt>
      <trkpt lat="54.012525813363" lon="16.660459051986">
        <ele>104.8</ele>
        <time>2019-07-29T08:59:36Z</time>
      </trkpt>
      <trkpt lat="54.012457919973" lon="16.66074873045">
        <ele>105</ele>
        <time>2019-07-29T08:59:43Z</time>
      </trkpt>
      <trkpt lat="54.01238692528" lon="16.66105131704">
        <ele>104.6</ele>
        <time>2019-07-29T08:59:50Z</time>
      </trkpt>
      <trkpt lat="54.012328168161" lon="16.661346695196">
        <ele>103.8</ele>
        <time>2019-07-29T08:59:57Z</time>
      </trkpt>
      <trkpt lat="54.012258011658" lon="16.661652718365">
        <ele>104</ele>
        <time>2019-07-29T09:00:04Z</time>
      </trkpt>
      <trkpt lat="54.012184250938" lon="16.661938876431">
        <ele>103</ele>
        <time>2019-07-29T09:00:10Z</time>
      </trkpt>
      <trkpt lat="54.012089786925" lon="16.662252108034">
        <ele>103.6</ele>
        <time>2019-07-29T09:00:17Z</time>
      </trkpt>
      <trkpt lat="54.0120080634" lon="16.662553604977">
        <ele>104.6</ele>
        <time>2019-07-29T09:00:24Z</time>
      </trkpt>
      <trkpt lat="54.011935224689" lon="16.662853509359">
        <ele>105.2</ele>
        <time>2019-07-29T09:00:31Z</time>
      </trkpt>
      <trkpt lat="54.011859871408" lon="16.663158275243">
        <ele>106.2</ele>
        <time>2019-07-29T09:00:38Z</time>
      </trkpt>
      <trkpt lat="54.011779488987" lon="16.663477290357">
        <ele>105.4</ele>
        <time>2019-07-29T09:00:45Z</time>
      </trkpt>
      <trkpt lat="54.011711092683" lon="16.663800244964">
        <ele>106.8</ele>
        <time>2019-07-29T09:00:52Z</time>
      </trkpt>
      <trkpt lat="54.01163758342" lon="16.664115991137">
        <ele>106</ele>
        <time>2019-07-29T09:00:59Z</time>
      </trkpt>
      <trkpt lat="54.011572120781" lon="16.66440491523">
        <ele>104.4</ele>
        <time>2019-07-29T09:01:06Z</time>
      </trkpt>
      <trkpt lat="54.011513196024" lon="16.664635668937">
        <ele>104.6</ele>
        <time>2019-07-29T09:01:11Z</time>
      </trkpt>
      <trkpt lat="54.011487044496" lon="16.664738011936">
        <ele>105.6</ele>
        <time>2019-07-29T09:01:22Z</time>
      </trkpt>
      <trkpt lat="54.011367015688" lon="16.664983014873">
        <ele>106</ele>
        <time>2019-07-29T09:01:30Z</time>
      </trkpt>
      <trkpt lat="54.011241790102" lon="16.665222821032">
        <ele>105.8</ele>
        <time>2019-07-29T09:01:36Z</time>
      </trkpt>
      <trkpt lat="54.011186888657" lon="16.665320721624">
        <ele>105.4</ele>
        <time>2019-07-29T09:01:39Z</time>
      </trkpt>
      <trkpt lat="54.01115981512" lon="16.665438906414">
        <ele>104.6</ele>
        <time>2019-07-29T09:01:57Z</time>
      </trkpt>
      <trkpt lat="54.011150511211" lon="16.665437481491">
        <ele>104.4</ele>
        <time>2019-07-29T09:01:58Z</time>
      </trkpt>
      <trkpt lat="54.010972479655" lon="16.66558341037">
        <ele>104.4</ele>
        <time>2019-07-29T09:02:05Z</time>
      </trkpt>
      <trkpt lat="54.010801740352" lon="16.665694470545">
        <ele>105</ele>
        <time>2019-07-29T09:02:11Z</time>
      </trkpt>
      <trkpt lat="54.010584313866" lon="16.665796226811">
        <ele>104.2</ele>
        <time>2019-07-29T09:02:19Z</time>
      </trkpt>
      <trkpt lat="54.010390189062" lon="16.66589689343">
        <ele>104.4</ele>
        <time>2019-07-29T09:02:26Z</time>
      </trkpt>
      <trkpt lat="54.010204697615" lon="16.666017760428">
        <ele>104.4</ele>
        <time>2019-07-29T09:02:33Z</time>
      </trkpt>
      <trkpt lat="54.01001652396" lon="16.666127479499">
        <ele>104.4</ele>
        <time>2019-07-29T09:02:40Z</time>
      </trkpt>
      <trkpt lat="54.009836564567" lon="16.666242143891">
        <ele>104.6</ele>
        <time>2019-07-29T09:02:47Z</time>
      </trkpt>
      <trkpt lat="54.009667501644" lon="16.666362591794">
        <ele>103.8</ele>
        <time>2019-07-29T09:02:54Z</time>
      </trkpt>
      <trkpt lat="54.009477400152" lon="16.666486057181">
        <ele>103.2</ele>
        <time>2019-07-29T09:03:02Z</time>
      </trkpt>
      <trkpt lat="54.009287969212" lon="16.666609690206">
        <ele>103.6</ele>
        <time>2019-07-29T09:03:10Z</time>
      </trkpt>
      <trkpt lat="54.009110608208" lon="16.666736424534">
        <ele>104.4</ele>
        <time>2019-07-29T09:03:18Z</time>
      </trkpt>
      <trkpt lat="54.008931654643" lon="16.666836420601">
        <ele>105.4</ele>
        <time>2019-07-29T09:03:25Z</time>
      </trkpt>
      <trkpt lat="54.008795784044" lon="16.666926274569">
        <ele>104.8</ele>
        <time>2019-07-29T09:03:31Z</time>
      </trkpt>
      <trkpt lat="54.008735937278" lon="16.666917641212">
        <ele>106.2</ele>
        <time>2019-07-29T09:04:52Z</time>
      </trkpt>
      <trkpt lat="54.008540136094" lon="16.667013865424">
        <ele>106.2</ele>
        <time>2019-07-29T09:05:01Z</time>
      </trkpt>
      <trkpt lat="54.008375767035" lon="16.667149568385">
        <ele>105.4</ele>
        <time>2019-07-29T09:05:08Z</time>
      </trkpt>
      <trkpt lat="54.008227155948" lon="16.667329443959">
        <ele>104.8</ele>
        <time>2019-07-29T09:05:15Z</time>
      </trkpt>
      <trkpt lat="54.008069660047" lon="16.667532956491">
        <ele>107.4</ele>
        <time>2019-07-29T09:05:23Z</time>
      </trkpt>
      <trkpt lat="54.007944266823" lon="16.667798159807">
        <ele>108.6</ele>
        <time>2019-07-29T09:05:31Z</time>
      </trkpt>
      <trkpt lat="54.007831194992" lon="16.668042073097">
        <ele>109.8</ele>
        <time>2019-07-29T09:05:39Z</time>
      </trkpt>
      <trkpt lat="54.007729774002" lon="16.668272407709">
        <ele>108.2</ele>
        <time>2019-07-29T09:05:45Z</time>
      </trkpt>
      <trkpt lat="54.007695072936" lon="16.668358070727">
        <ele>107</ele>
        <time>2019-07-29T09:06:12Z</time>
      </trkpt>
      <trkpt lat="54.007582252562" lon="16.668606258786">
        <ele>107.6</ele>
        <time>2019-07-29T09:06:20Z</time>
      </trkpt>
      <trkpt lat="54.007438754434" lon="16.668841706357">
        <ele>106.4</ele>
        <time>2019-07-29T09:06:26Z</time>
      </trkpt>
      <trkpt lat="54.007308164432" lon="16.669074052625">
        <ele>106.2</ele>
        <time>2019-07-29T09:06:32Z</time>
      </trkpt>
      <trkpt lat="54.007167348512" lon="16.669332550421">
        <ele>107.4</ele>
        <time>2019-07-29T09:06:39Z</time>
      </trkpt>
      <trkpt lat="54.007037177605" lon="16.669568836182">
        <ele>108.6</ele>
        <time>2019-07-29T09:06:45Z</time>
      </trkpt>
      <trkpt lat="54.006912874028" lon="16.669798416423">
        <ele>109.2</ele>
        <time>2019-07-29T09:06:52Z</time>
      </trkpt>
      <trkpt lat="54.006765017312" lon="16.670030930329">
        <ele>112</ele>
        <time>2019-07-29T09:06:59Z</time>
      </trkpt>
      <trkpt lat="54.006677175" lon="16.670146181454">
        <ele>111.8</ele>
        <time>2019-07-29T09:07:03Z</time>
      </trkpt>
      <trkpt lat="54.006623447021" lon="16.67016495691">
        <ele>110.8</ele>
        <time>2019-07-29T09:07:16Z</time>
      </trkpt>
      <trkpt lat="54.006596876398" lon="16.670156155915">
        <ele>110</ele>
        <time>2019-07-29T09:07:18Z</time>
      </trkpt>
      <trkpt lat="54.006424460715" lon="16.67033594767">
        <ele>109</ele>
        <time>2019-07-29T09:07:25Z</time>
      </trkpt>
      <trkpt lat="54.006266629538" lon="16.670519678918">
        <ele>111.2</ele>
        <time>2019-07-29T09:07:32Z</time>
      </trkpt>
      <trkpt lat="54.00611642589" lon="16.670741883087">
        <ele>113.8</ele>
        <time>2019-07-29T09:07:40Z</time>
      </trkpt>
      <trkpt lat="54.005958091799" lon="16.670924859964">
        <ele>116.8</ele>
        <time>2019-07-29T09:07:47Z</time>
      </trkpt>
      <trkpt lat="54.005903357992" lon="16.670999458874">
        <ele>118.4</ele>
        <time>2019-07-29T09:07:50Z</time>
      </trkpt>
      <trkpt lat="54.005873769885" lon="16.671034830492">
        <ele>117.4</ele>
        <time>2019-07-29T09:08:08Z</time>
      </trkpt>
      <trkpt lat="54.005694313406" lon="16.671208754917">
        <ele>118.2</ele>
        <time>2019-07-29T09:08:17Z</time>
      </trkpt>
      <trkpt lat="54.005524496112" lon="16.671385613007">
        <ele>121</ele>
        <time>2019-07-29T09:08:24Z</time>
      </trkpt>
      <trkpt lat="54.005350990782" lon="16.671559453613">
        <ele>122</ele>
        <time>2019-07-29T09:08:31Z</time>
      </trkpt>
      <trkpt lat="54.005180670574" lon="16.671722230111">
        <ele>120.8</ele>
        <time>2019-07-29T09:08:39Z</time>
      </trkpt>
      <trkpt lat="54.005016552972" lon="16.671882827315">
        <ele>119.8</ele>
        <time>2019-07-29T09:08:47Z</time>
      </trkpt>
      <trkpt lat="54.004865511134" lon="16.672102433095">
        <ele>120.6</ele>
        <time>2019-07-29T09:08:54Z</time>
      </trkpt>
      <trkpt lat="54.004697873134" lon="16.672295552071">
        <ele>120.4</ele>
        <time>2019-07-29T09:09:01Z</time>
      </trkpt>
      <trkpt lat="54.004541885975" lon="16.672470230867">
        <ele>122</ele>
        <time>2019-07-29T09:09:08Z</time>
      </trkpt>
      <trkpt lat="54.004378690382" lon="16.672647508052">
        <ele>122.6</ele>
        <time>2019-07-29T09:09:15Z</time>
      </trkpt>
      <trkpt lat="54.004217506445" lon="16.672819169364">
        <ele>123.8</ele>
        <time>2019-07-29T09:09:22Z</time>
      </trkpt>
      <trkpt lat="54.004049030255" lon="16.672995943635">
        <ele>124</ele>
        <time>2019-07-29T09:09:29Z</time>
      </trkpt>
      <trkpt lat="54.00389103144" lon="16.673141201962">
        <ele>125.8</ele>
        <time>2019-07-29T09:09:37Z</time>
      </trkpt>
      <trkpt lat="54.0037183643" lon="16.673306828306">
        <ele>127</ele>
        <time>2019-07-29T09:09:45Z</time>
      </trkpt>
      <trkpt lat="54.003554833431" lon="16.67343557429">
        <ele>128.2</ele>
        <time>2019-07-29T09:09:52Z</time>
      </trkpt>
      <trkpt lat="54.003394739141" lon="16.673595752399">
        <ele>127.8</ele>
        <time>2019-07-29T09:09:59Z</time>
      </trkpt>
      <trkpt lat="54.003230789177" lon="16.673791302126">
        <ele>127.8</ele>
        <time>2019-07-29T09:10:07Z</time>
      </trkpt>
      <trkpt lat="54.003013027415" lon="16.674039657823">
        <ele>128.2</ele>
        <time>2019-07-29T09:10:18Z</time>
      </trkpt>
      <trkpt lat="54.00284161756" lon="16.674161865925">
        <ele>126.6</ele>
        <time>2019-07-29T09:10:26Z</time>
      </trkpt>
      <trkpt lat="54.002834492945" lon="16.674153316387">
        <ele>129.8</ele>
        <time>2019-07-29T09:12:43Z</time>
      </trkpt>
      <trkpt lat="54.002666771126" lon="16.674333191961">
        <ele>129.2</ele>
        <time>2019-07-29T09:12:51Z</time>
      </trkpt>
      <trkpt lat="54.002510700148" lon="16.674527987317">
        <ele>129.6</ele>
        <time>2019-07-29T09:12:57Z</time>
      </trkpt>
      <trkpt lat="54.00233702718" lon="16.674710964194">
        <ele>129.2</ele>
        <time>2019-07-29T09:13:03Z</time>
      </trkpt>
      <trkpt lat="54.002181459116" lon="16.674922439531">
        <ele>129.8</ele>
        <time>2019-07-29T09:13:09Z</time>
      </trkpt>
      <trkpt lat="54.002031004011" lon="16.675091167178">
        <ele>128.6</ele>
        <time>2019-07-29T09:13:14Z</time>
      </trkpt>
      <trkpt lat="54.001867724599" lon="16.675284202335">
        <ele>128.2</ele>
        <time>2019-07-29T09:13:20Z</time>
      </trkpt>
      <trkpt lat="54.001798322467" lon="16.675360142349">
        <ele>128.2</ele>
        <time>2019-07-29T09:13:23Z</time>
      </trkpt>
      <trkpt lat="54.001815253905" lon="16.675275233702">
        <ele>125.6</ele>
        <time>2019-07-29T09:13:37Z</time>
      </trkpt>
      <trkpt lat="54.001664128248" lon="16.675463323538">
        <ele>125.6</ele>
        <time>2019-07-29T09:13:44Z</time>
      </trkpt>
      <trkpt lat="54.00152482107" lon="16.675703632611">
        <ele>124.8</ele>
        <time>2019-07-29T09:13:50Z</time>
      </trkpt>
      <trkpt lat="54.001510488021" lon="16.675731879614">
        <ele>124.6</ele>
        <time>2019-07-29T09:13:51Z</time>
      </trkpt>
      <trkpt lat="54.001549044761" lon="16.675599529413">
        <ele>123.8</ele>
        <time>2019-07-29T09:14:17Z</time>
      </trkpt>
      <trkpt lat="54.001421304605" lon="16.675877305579">
        <ele>123.8</ele>
        <time>2019-07-29T09:14:24Z</time>
      </trkpt>
      <trkpt lat="54.001320889443" lon="16.676177126142">
        <ele>124</ele>
        <time>2019-07-29T09:14:30Z</time>
      </trkpt>
      <trkpt lat="54.001241093755" lon="16.676490106288">
        <ele>123.6</ele>
        <time>2019-07-29T09:14:37Z</time>
      </trkpt>
      <trkpt lat="54.001213182028" lon="16.67658716869">
        <ele>123.8</ele>
        <time>2019-07-29T09:14:39Z</time>
      </trkpt>
      <trkpt lat="54.001178564781" lon="16.676705018204">
        <ele>123.8</ele>
        <time>2019-07-29T09:14:53Z</time>
      </trkpt>
      <trkpt lat="54.001093237039" lon="16.677012047201">
        <ele>124.2</ele>
        <time>2019-07-29T09:15:01Z</time>
      </trkpt>
      <trkpt lat="54.001011932609" lon="16.677296025973">
        <ele>124.4</ele>
        <time>2019-07-29T09:15:07Z</time>
      </trkpt>
      <trkpt lat="54.000916881863" lon="16.677605485721">
        <ele>124.2</ele>
        <time>2019-07-29T09:15:14Z</time>
      </trkpt>
      <trkpt lat="54.000826441162" lon="16.67788301043">
        <ele>124</ele>
        <time>2019-07-29T09:15:20Z</time>
      </trkpt>
      <trkpt lat="54.000734743176" lon="16.678169839048">
        <ele>123.6</ele>
        <time>2019-07-29T09:15:26Z</time>
      </trkpt>
      <trkpt lat="54.000648577244" lon="16.678467564136">
        <ele>124.6</ele>
        <time>2019-07-29T09:15:32Z</time>
      </trkpt>
      <trkpt lat="54.000560986389" lon="16.678775347504">
        <ele>123.4</ele>
        <time>2019-07-29T09:15:38Z</time>
      </trkpt>
      <trkpt lat="54.000481358339" lon="16.679071480031">
        <ele>124</ele>
        <time>2019-07-29T09:15:44Z</time>
      </trkpt>
      <trkpt lat="54.000390498543" lon="16.679343640324">
        <ele>124.6</ele>
        <time>2019-07-29T09:15:50Z</time>
      </trkpt>
      <trkpt lat="54.000311038131" lon="16.679617812273">
        <ele>124</ele>
        <time>2019-07-29T09:15:56Z</time>
      </trkpt>
      <trkpt lat="54.000221267982" lon="16.679935570102">
        <ele>123.6</ele>
        <time>2019-07-29T09:16:03Z</time>
      </trkpt>
      <trkpt lat="54.000130994919" lon="16.680252741198">
        <ele>123.8</ele>
        <time>2019-07-29T09:16:10Z</time>
      </trkpt>
      <trkpt lat="54.000043906978" lon="16.680538731626">
        <ele>122.4</ele>
        <time>2019-07-29T09:16:16Z</time>
      </trkpt>
      <trkpt lat="53.999960926168" lon="16.68084182113">
        <ele>123.6</ele>
        <time>2019-07-29T09:16:23Z</time>
      </trkpt>
      <trkpt lat="53.999878280634" lon="16.681127308644">
        <ele>124</ele>
        <time>2019-07-29T09:16:30Z</time>
      </trkpt>
      <trkpt lat="53.999792785254" lon="16.681436684573">
        <ele>122.8</ele>
        <time>2019-07-29T09:16:37Z</time>
      </trkpt>
      <trkpt lat="53.999692705368" lon="16.681732146548">
        <ele>121.6</ele>
        <time>2019-07-29T09:16:44Z</time>
      </trkpt>
      <trkpt lat="53.999578208614" lon="16.681997517502">
        <ele>121</ele>
        <time>2019-07-29T09:16:51Z</time>
      </trkpt>
      <trkpt lat="53.999441164549" lon="16.682207400278">
        <ele>122</ele>
        <time>2019-07-29T09:16:58Z</time>
      </trkpt>
      <trkpt lat="53.999286937589" lon="16.682367243111">
        <ele>122.6</ele>
        <time>2019-07-29T09:17:05Z</time>
      </trkpt>
      <trkpt lat="53.999123993453" lon="16.682523146451">
        <ele>124.8</ele>
        <time>2019-07-29T09:17:13Z</time>
      </trkpt>
      <trkpt lat="53.998945878078" lon="16.682675026479">
        <ele>124.6</ele>
        <time>2019-07-29T09:17:22Z</time>
      </trkpt>
      <trkpt lat="53.998778156259" lon="16.68285012437">
        <ele>125.4</ele>
        <time>2019-07-29T09:17:31Z</time>
      </trkpt>
      <trkpt lat="53.99860456711" lon="16.68302027694">
        <ele>124.8</ele>
        <time>2019-07-29T09:17:40Z</time>
      </trkpt>
      <trkpt lat="53.998440868603" lon="16.683178359574">
        <ele>125.2</ele>
        <time>2019-07-29T09:17:48Z</time>
      </trkpt>
      <trkpt lat="53.998274571707" lon="16.683327222118">
        <ele>125.2</ele>
        <time>2019-07-29T09:17:56Z</time>
      </trkpt>
      <trkpt lat="53.998108274811" lon="16.683491088263">
        <ele>124.8</ele>
        <time>2019-07-29T09:18:04Z</time>
      </trkpt>
      <trkpt lat="53.998082039464" lon="16.683511540099">
        <ele>124.6</ele>
        <time>2019-07-29T09:18:06Z</time>
      </trkpt>
      <trkpt lat="53.997900068415" lon="16.683653026571">
        <ele>128.2</ele>
        <time>2019-07-29T09:19:59Z</time>
      </trkpt>
      <trkpt lat="53.997740812315" lon="16.683827705367">
        <ele>129</ele>
        <time>2019-07-29T09:20:07Z</time>
      </trkpt>
      <trkpt lat="53.99758616626" lon="16.684003557629">
        <ele>128.4</ele>
        <time>2019-07-29T09:20:13Z</time>
      </trkpt>
      <trkpt lat="53.997563032216" lon="16.68402359037">
        <ele>128.6</ele>
        <time>2019-07-29T09:20:14Z</time>
      </trkpt>
      <trkpt lat="53.997524307838" lon="16.684051083002">
        <ele>129.4</ele>
        <time>2019-07-29T09:20:17Z</time>
      </trkpt>
      <trkpt lat="53.997356250743" lon="16.684255182267">
        <ele>129.8</ele>
        <time>2019-07-29T09:20:25Z</time>
      </trkpt>
      <trkpt lat="53.997337056192" lon="16.684279154501">
        <ele>130.4</ele>
        <time>2019-07-29T09:20:26Z</time>
      </trkpt>
      <trkpt lat="53.997300092013" lon="16.684338246896">
        <ele>131.2</ele>
        <time>2019-07-29T09:21:32Z</time>
      </trkpt>
      <trkpt lat="53.9971134271" lon="16.684518290108">
        <ele>128.6</ele>
        <time>2019-07-29T09:21:41Z</time>
      </trkpt>
      <trkpt lat="53.996791143045" lon="16.684729094893">
        <ele>127.2</ele>
        <time>2019-07-29T09:21:50Z</time>
      </trkpt>
      <trkpt lat="53.996593078748" lon="16.684830012969">
        <ele>126.6</ele>
        <time>2019-07-29T09:21:56Z</time>
      </trkpt>
      <trkpt lat="53.996390823501" lon="16.684938726212">
        <ele>126.4</ele>
        <time>2019-07-29T09:22:02Z</time>
      </trkpt>
      <trkpt lat="53.996219665103" lon="16.685079877408">
        <ele>130</ele>
        <time>2019-07-29T09:22:07Z</time>
      </trkpt>
      <trkpt lat="53.996042890832" lon="16.685229494323">
        <ele>132.2</ele>
        <time>2019-07-29T09:22:13Z</time>
      </trkpt>
      <trkpt lat="53.995888663872" lon="16.685353211167">
        <ele>133.8</ele>
        <time>2019-07-29T09:22:21Z</time>
      </trkpt>
      <trkpt lat="53.995796462972" lon="16.685087924032">
        <ele>136.4</ele>
        <time>2019-07-29T09:22:31Z</time>
      </trkpt>
      <trkpt lat="53.99579076328" lon="16.684753989136">
        <ele>137.6</ele>
        <time>2019-07-29T09:22:37Z</time>
      </trkpt>
      <trkpt lat="53.995822782138" lon="16.684615184872">
        <ele>138.2</ele>
        <time>2019-07-29T09:22:40Z</time>
      </trkpt>
      <trkpt lat="53.995861590335" lon="16.684618202356">
        <ele>138.4</ele>
        <time>2019-07-29T09:22:42Z</time>
      </trkpt>
      <trkpt lat="53.995938368539" lon="16.684900672386">
        <ele>138.4</ele>
        <time>2019-07-29T09:22:48Z</time>
      </trkpt>
      <trkpt lat="53.995930657191" lon="16.684932020692">
        <ele>138.4</ele>
        <time>2019-07-29T09:22:49Z</time>
      </trkpt>
      <trkpt lat="53.995842311965" lon="16.684962866084">
        <ele>138</ele>
        <time>2019-07-29T09:22:53Z</time>
      </trkpt>
      <trkpt lat="53.995771401091" lon="16.685135281767">
        <ele>136.6</ele>
        <time>2019-07-29T09:22:58Z</time>
      </trkpt>
    </trkseg>
  </trk>
</gpx>